DAUG

Noumérat - Moufdi Zakaria Airport

Ghardaïa, Algeria
METAR DAUG 170700Z 34008KT CAVOK 08/M02 Q1022
Observed Flight Rules
Dec-17 @ 07:00 UTC (an hour ago) Visual Flight Rules
Wind Visibility Clouds
340° at 8 knots 10,000+ meters
  • Clear skies
Temperatures Readings
Current 8°C / 46°F
Dewpoint -2°C / 28°F
Humidity 50%
Altimeter 30.18" Hg
Pressure 1022 hPa
Elevation 450
METAR DAUG 170700Z 34008KT CAVOK 08/M02 Q1022
Observed Flight Rules
Dec-17 @ 07:00 UTC
(an hour ago)
VFR
Wind Visibility
340° at 8 knots 10,000+ meters
Clouds
  • Clear skies
Temperature Dewpoint
8°C / 46°F -2°C / 28°F
Humidity Altimeter Pressure
50% 30.18" Hg 1022 hPa